createdAt,value
2019-05-18T00:00:00.745Z,62.60
2019-05-18T00:00:31.898Z,62.60
2019-05-18T00:01:03.010Z,62.60
2019-05-18T00:01:34.364Z,62.60
2019-05-18T00:02:05.465Z,62.60
2019-05-18T00:02:36.573Z,62.60
2019-05-18T00:03:07.959Z,62.60
2019-05-18T00:03:39.053Z,62.60
2019-05-18T00:04:10.168Z,62.60
2019-05-18T00:04:41.277Z,62.60
2019-05-18T00:05:12.414Z,62.70
2019-05-18T00:05:43.523Z,62.60
2019-05-18T00:06:14.870Z,62.70
2019-05-18T00:06:45.981Z,62.70
2019-05-18T00:07:17.106Z,62.70
2019-05-18T00:07:48.450Z,62.80
2019-05-18T00:08:19.557Z,62.80
2019-05-18T00:08:50.665Z,62.80
2019-05-18T00:09:21.779Z,62.80
2019-05-18T00:09:53.113Z,62.80
2019-05-18T00:10:24.458Z,62.90
2019-05-18T00:10:55.585Z,62.80
2019-05-18T00:11:26.721Z,62.80
2019-05-18T00:11:57.829Z,62.80
2019-05-18T00:12:29.181Z,62.80
2019-05-18T00:13:00.289Z,62.80
2019-05-18T00:13:31.401Z,62.80
2019-05-18T00:14:02.513Z,62.90
2019-05-18T00:14:33.629Z,62.80
2019-05-18T00:15:04.741Z,62.80
2019-05-18T00:15:35.868Z,62.80
2019-05-18T00:16:06.985Z,62.80
2019-05-18T00:16:38.324Z,62.80
2019-05-18T00:17:24.247Z,62.80
2019-05-18T00:17:42.297Z,62.70
2019-05-18T00:18:13.485Z,62.70
2019-05-18T00:18:44.589Z,62.70
2019-05-18T00:19:15.702Z,62.70
2019-05-18T00:19:47.040Z,62.60
2019-05-18T00:20:18.152Z,62.70
2019-05-18T00:20:49.485Z,62.70
2019-05-18T00:21:20.633Z,62.70
2019-05-18T00:21:51.733Z,62.70
2019-05-18T00:22:22.837Z,62.70
2019-05-18T00:22:53.960Z,62.70
2019-05-18T00:23:25.076Z,62.60
2019-05-18T00:23:56.187Z,62.70
2019-05-18T00:24:27.297Z,62.70
2019-05-18T00:24:58.642Z,62.70
2019-05-18T00:25:29.748Z,62.80
2019-05-18T00:26:00.870Z,62.70
2019-05-18T00:26:32.221Z,62.80
2019-05-18T00:27:03.336Z,62.70
2019-05-18T00:27:34.446Z,62.70
2019-05-18T00:28:05.789Z,62.70
2019-05-18T00:28:36.901Z,62.70
2019-05-18T00:29:08.241Z,62.60
2019-05-18T00:29:39.351Z,62.70
2019-05-18T00:30:10.468Z,62.70
2019-05-18T00:30:41.829Z,62.70
2019-05-18T00:31:12.937Z,62.70
2019-05-18T00:31:44.046Z,62.70
2019-05-18T00:32:15.169Z,62.70
2019-05-18T00:32:46.328Z,62.70
2019-05-18T00:33:17.476Z,62.70
2019-05-18T00:33:48.589Z,62.60
2019-05-18T00:34:19.958Z,62.60
2019-05-18T00:34:51.070Z,62.70
2019-05-18T00:35:22.179Z,62.60
2019-05-18T00:35:53.290Z,62.60
2019-05-18T00:36:24.392Z,62.60
2019-05-18T00:36:55.505Z,62.60
2019-05-18T00:37:26.638Z,62.70
2019-05-18T00:37:57.958Z,62.60
2019-05-18T00:38:29.069Z,62.60
2019-05-18T00:39:00.481Z,62.60
2019-05-18T00:39:31.642Z,62.60
2019-05-18T00:40:02.761Z,62.60
2019-05-18T00:40:34.105Z,62.60
2019-05-18T00:41:05.213Z,62.60
2019-05-18T00:41:36.337Z,62.60
2019-05-18T00:42:07.441Z,62.60
2019-05-18T00:42:38.548Z,62.60
2019-05-18T00:43:09.671Z,62.70
2019-05-18T00:43:40.997Z,62.60
2019-05-18T00:44:12.117Z,62.60
2019-05-18T00:44:43.265Z,62.60
2019-05-18T00:45:14.373Z,62.60
2019-05-18T00:45:45.721Z,62.60
2019-05-18T00:46:16.831Z,63.40
2019-05-18T00:46:48.176Z,62.60
2019-05-18T00:47:19.294Z,62.60
2019-05-18T00:47:50.415Z,62.60
2019-05-18T00:48:21.521Z,62.70
2019-05-18T00:48:52.637Z,62.70
2019-05-18T00:49:23.752Z,62.70
2019-05-18T00:49:54.861Z,62.80
2019-05-18T00:50:26.210Z,62.70
2019-05-18T00:50:57.329Z,62.70
2019-05-18T00:51:28.432Z,62.70
2019-05-18T00:51:59.545Z,62.70
2019-05-18T00:52:30.682Z,62.70
2019-05-18T00:53:01.798Z,62.70
2019-05-18T00:53:32.922Z,62.70
2019-05-18T00:54:04.033Z,63.50
2019-05-18T00:54:35.382Z,62.70
2019-05-18T00:55:06.493Z,62.80
2019-05-18T00:55:37.605Z,62.70
2019-05-18T00:56:08.712Z,63.50
2019-05-18T00:56:39.832Z,62.70
2019-05-18T00:57:10.941Z,63.50
2019-05-18T00:57:42.053Z,62.70
2019-05-18T00:58:13.166Z,62.70
2019-05-18T00:58:44.276Z,62.70
2019-05-18T00:59:16.193Z,62.70
2019-05-18T00:59:47.505Z,62.60
2019-05-18T01:01:09.197Z,62.60
2019-05-18T01:01:40.409Z,62.60
2019-05-18T01:02:11.578Z,62.60
2019-05-18T01:02:42.786Z,62.60
2019-05-18T01:03:14.071Z,62.60
2019-05-18T01:03:45.239Z,62.60
2019-05-18T01:04:16.421Z,62.60
2019-05-18T01:04:47.678Z,62.60
2019-05-18T01:05:18.852Z,62.60
2019-05-18T01:05:50.049Z,62.60
2019-05-18T01:06:21.274Z,62.60
2019-05-18T01:06:52.446Z,62.60
2019-05-18T01:07:23.626Z,62.60
2019-05-18T01:07:54.849Z,62.60
2019-05-18T01:08:26.278Z,62.60
2019-05-18T01:08:57.452Z,62.60
2019-05-18T01:09:28.633Z,62.60
2019-05-18T01:09:59.810Z,62.60
2019-05-18T01:10:31.252Z,62.60
2019-05-18T01:11:02.431Z,62.60
2019-05-18T01:11:33.615Z,62.60
2019-05-18T01:12:04.805Z,62.70
2019-05-18T01:12:35.980Z,62.60
2019-05-18T01:13:07.151Z,62.60
2019-05-18T01:13:38.323Z,62.60
2019-05-18T01:14:09.495Z,62.60
2019-05-18T01:14:40.964Z,62.60
2019-05-18T01:15:12.136Z,62.70
2019-05-18T01:15:43.328Z,62.60
2019-05-18T01:16:14.507Z,62.60
2019-05-18T01:16:45.723Z,62.60
2019-05-18T01:17:16.901Z,62.60
2019-05-18T01:17:56.903Z,62.60
2019-05-18T01:18:21.221Z,62.70
2019-05-18T01:18:52.404Z,62.60
2019-05-18T01:19:23.578Z,62.60
2019-05-18T01:19:55.089Z,62.60
2019-05-18T01:20:26.313Z,62.60
2019-05-18T01:20:57.492Z,62.50
2019-05-18T01:21:28.657Z,62.60
2019-05-18T01:21:59.859Z,62.60
2019-05-18T01:22:31.034Z,62.60
2019-05-18T01:23:02.224Z,62.60
2019-05-18T01:23:33.393Z,62.60
2019-05-18T01:24:04.576Z,62.60
2019-05-18T01:24:35.745Z,62.60
2019-05-18T01:25:06.921Z,62.60
2019-05-18T01:25:38.089Z,62.60
2019-05-18T01:26:09.262Z,62.60
2019-05-18T01:26:40.438Z,62.60
2019-05-18T01:27:11.867Z,62.60
2019-05-18T01:27:43.038Z,62.60
2019-05-18T01:28:14.218Z,62.50
2019-05-18T01:28:45.405Z,62.50
2019-05-18T01:29:16.575Z,62.60
2019-05-18T01:29:47.751Z,62.60
2019-05-18T01:30:18.931Z,62.70
2019-05-18T01:30:50.109Z,62.70
2019-05-18T01:31:21.283Z,62.70
2019-05-18T01:31:52.460Z,62.70
2019-05-18T01:32:23.635Z,62.70
2019-05-18T01:32:54.813Z,62.70
2019-05-18T01:33:26.063Z,62.70
2019-05-18T01:33:57.244Z,62.70
2019-05-18T01:34:28.417Z,62.70
2019-05-18T01:34:59.588Z,62.70
2019-05-18T01:35:30.759Z,62.70
2019-05-18T01:36:01.948Z,62.60
2019-05-18T01:36:33.144Z,62.60
2019-05-18T01:37:04.315Z,62.60
2019-05-18T01:37:35.749Z,62.60
2019-05-18T01:38:07.194Z,62.60
2019-05-18T01:38:38.438Z,62.60
2019-05-18T01:39:09.930Z,62.60
2019-05-18T01:39:41.139Z,62.60
2019-05-18T01:40:12.575Z,62.60
2019-05-18T01:40:43.745Z,62.60
2019-05-18T01:41:14.934Z,62.60
2019-05-18T01:41:46.105Z,62.60
2019-05-18T01:42:17.580Z,62.60
2019-05-18T01:42:48.758Z,62.60
2019-05-18T01:43:19.933Z,62.50
2019-05-18T01:43:51.109Z,62.50
2019-05-18T01:44:22.287Z,62.50
2019-05-18T01:44:53.544Z,62.50
2019-05-18T01:45:24.719Z,62.50
2019-05-18T01:45:55.910Z,62.60
2019-05-18T01:46:27.346Z,62.50
2019-05-18T01:46:58.783Z,62.60
2019-05-18T01:47:30.209Z,62.60
2019-05-18T01:48:13.305Z,62.60
2019-05-18T01:48:34.294Z,62.60
2019-05-18T01:49:05.478Z,62.60
2019-05-18T01:49:36.659Z,62.50
2019-05-18T01:50:08.077Z,62.50
2019-05-18T01:50:39.256Z,62.60
2019-05-18T01:51:10.427Z,62.60
2019-05-18T01:51:41.626Z,62.50
2019-05-18T01:52:12.982Z,62.50
2019-05-18T01:52:44.205Z,62.50
2019-05-18T01:53:15.403Z,62.60
2019-05-18T01:53:46.573Z,62.50
2019-05-18T01:54:17.751Z,62.50
2019-05-18T01:54:49.186Z,62.50
2019-05-18T01:55:20.360Z,62.50
2019-05-18T01:55:51.541Z,62.50
2019-05-18T01:56:22.981Z,62.50
2019-05-18T01:56:54.168Z,62.50
2019-05-18T01:57:25.340Z,62.50
2019-05-18T01:57:56.533Z,62.50
2019-05-18T01:58:27.704Z,62.50
2019-05-18T01:58:59.129Z,62.50
2019-05-18T01:59:30.306Z,62.50
2019-05-18T02:00:01.511Z,62.50
2019-05-18T02:00:32.753Z,62.60
2019-05-18T02:01:04.219Z,62.50
2019-05-18T02:01:35.393Z,62.60
2019-05-18T02:02:06.594Z,62.60
2019-05-18T02:02:37.769Z,62.60
2019-05-18T02:03:09.210Z,62.60
2019-05-18T02:03:40.385Z,62.60
2019-05-18T02:04:11.572Z,62.60
2019-05-18T02:04:42.745Z,62.60
2019-05-18T02:05:14.002Z,62.60
2019-05-18T02:05:45.183Z,62.60
2019-05-18T02:06:16.361Z,62.60
2019-05-18T02:06:47.559Z,62.60
2019-05-18T02:07:18.740Z,62.60
2019-05-18T02:07:50.167Z,62.60
2019-05-18T02:08:21.429Z,62.60
2019-05-18T02:08:52.601Z,62.60
2019-05-18T02:09:23.780Z,62.60
2019-05-18T02:09:55.223Z,62.60
2019-05-18T02:10:26.652Z,62.60
2019-05-18T02:10:57.843Z,62.60
2019-05-18T02:11:29.020Z,62.70
2019-05-18T02:12:00.456Z,62.80
2019-05-18T02:12:31.639Z,62.80
2019-05-18T02:13:03.022Z,62.80
2019-05-18T02:13:34.508Z,62.90
2019-05-18T02:14:05.681Z,62.90
2019-05-18T02:14:36.856Z,62.80
2019-05-18T02:15:08.040Z,62.80
2019-05-18T02:15:39.218Z,62.90
2019-05-18T02:16:10.383Z,62.70
2019-05-18T02:16:41.572Z,62.70
2019-05-18T02:17:13.013Z,62.60
2019-05-18T02:17:44.262Z,62.70
2019-05-18T02:18:28.243Z,62.70
2019-05-18T02:18:48.364Z,62.70
2019-05-18T02:19:19.581Z,62.60
2019-05-18T02:19:50.753Z,62.60
2019-05-18T02:20:21.925Z,62.70
2019-05-18T02:20:53.099Z,62.70
2019-05-18T02:21:24.265Z,62.70
2019-05-18T02:21:55.496Z,62.70
2019-05-18T02:22:26.738Z,62.70
2019-05-18T02:22:57.919Z,62.60
2019-05-18T02:23:29.170Z,62.60
2019-05-18T02:24:00.361Z,62.60
2019-05-18T02:24:31.542Z,62.60
2019-05-18T02:25:02.724Z,62.60
2019-05-18T02:25:33.897Z,62.50
2019-05-18T02:26:05.066Z,62.50
2019-05-18T02:26:36.238Z,62.50
2019-05-18T02:27:07.434Z,62.50
2019-05-18T02:27:38.647Z,62.50
2019-05-18T02:28:09.856Z,62.50
2019-05-18T02:28:41.050Z,62.50
2019-05-18T02:29:12.293Z,62.50
2019-05-18T02:29:43.459Z,62.50
2019-05-18T02:30:17.475Z,62.60
2019-05-18T02:30:47.564Z,62.50
2019-05-18T02:31:18.745Z,62.50
2019-05-18T02:31:49.921Z,62.50
2019-05-18T02:32:21.094Z,62.60
2019-05-18T02:32:52.260Z,62.50
2019-05-18T02:33:23.424Z,62.50
2019-05-18T02:33:54.628Z,62.50
2019-05-18T02:34:25.797Z,62.50
2019-05-18T02:34:56.977Z,62.50
2019-05-18T02:35:28.449Z,62.50
2019-05-18T02:35:59.624Z,62.60
2019-05-18T02:36:30.797Z,62.50
2019-05-18T02:37:01.997Z,62.50
2019-05-18T02:37:33.165Z,62.50
2019-05-18T02:38:04.364Z,62.60
2019-05-18T02:38:35.537Z,62.60
2019-05-18T02:39:06.717Z,62.60
2019-05-18T02:39:37.886Z,62.50
2019-05-18T02:40:09.070Z,62.70
2019-05-18T02:40:40.511Z,62.60
2019-05-18T02:41:11.686Z,62.50
2019-05-18T02:41:42.862Z,62.50
2019-05-18T02:42:14.039Z,62.50
2019-05-18T02:42:45.486Z,62.50
2019-05-18T02:43:16.651Z,62.50
2019-05-18T02:43:47.823Z,62.50
2019-05-18T02:44:19.250Z,62.50
2019-05-18T02:44:50.427Z,62.50
2019-05-18T02:45:21.644Z,62.50
2019-05-18T02:45:52.806Z,62.50
2019-05-18T02:46:24.008Z,62.50
2019-05-18T02:46:55.199Z,62.50
2019-05-18T02:47:26.365Z,62.50
2019-05-18T02:47:57.538Z,62.50
2019-05-18T02:48:28.706Z,62.50
2019-05-18T02:48:59.883Z,62.50
2019-05-18T02:49:31.051Z,62.50
2019-05-18T02:50:02.251Z,62.50
2019-05-18T02:50:33.704Z,62.50
2019-05-18T02:51:04.881Z,62.50
2019-05-18T02:51:36.057Z,62.50
2019-05-18T02:52:07.229Z,62.50
2019-05-18T02:52:38.656Z,62.60
2019-05-18T02:53:09.844Z,62.60
2019-05-18T02:53:41.021Z,62.60
2019-05-18T02:54:12.184Z,62.70
2019-05-18T02:54:43.702Z,62.70
2019-05-18T02:55:14.884Z,62.70
2019-05-18T02:55:46.056Z,62.80
2019-05-18T02:56:17.229Z,62.70
2019-05-18T02:56:48.405Z,62.80
2019-05-18T02:57:19.580Z,62.70
2019-05-18T02:57:50.757Z,62.70
2019-05-18T02:58:21.960Z,62.70
2019-05-18T02:58:53.393Z,62.70
2019-05-18T02:59:24.578Z,62.70
2019-05-18T02:59:55.745Z,62.70
2019-05-18T03:00:26.922Z,62.70
2019-05-18T03:00:58.401Z,62.70
2019-05-18T03:01:29.565Z,62.60
2019-05-18T03:02:00.751Z,62.60
2019-05-18T03:02:32.172Z,62.60
2019-05-18T03:03:03.363Z,62.60
2019-05-18T03:03:34.627Z,62.60
2019-05-18T03:04:05.807Z,62.60
2019-05-18T03:04:36.999Z,62.60
2019-05-18T03:05:08.173Z,62.50
2019-05-18T03:05:39.338Z,62.60
2019-05-18T03:06:10.507Z,62.50
2019-05-18T03:06:41.956Z,62.50
2019-05-18T03:07:13.126Z,62.50
2019-05-18T03:07:44.299Z,62.50
2019-05-18T03:08:15.814Z,62.50
2019-05-18T03:08:47.075Z,62.50
2019-05-18T03:09:18.251Z,62.50
2019-05-18T03:09:49.419Z,62.60
2019-05-18T03:10:20.860Z,62.50
2019-05-18T03:10:52.288Z,62.60
2019-05-18T03:11:23.463Z,62.60
2019-05-18T03:11:54.632Z,62.50
2019-05-18T03:12:25.803Z,62.60
2019-05-18T03:12:57.005Z,62.60
2019-05-18T03:13:28.193Z,62.60
2019-05-18T03:13:59.416Z,62.60
2019-05-18T03:14:30.917Z,62.60
2019-05-18T03:15:02.119Z,62.60
2019-05-18T03:15:33.351Z,62.60
2019-05-18T03:16:04.528Z,62.60
2019-05-18T03:16:35.708Z,62.60
2019-05-18T03:17:06.881Z,62.60
2019-05-18T03:17:38.074Z,62.60
2019-05-18T03:18:09.246Z,62.60
2019-05-18T03:18:40.417Z,62.50
2019-05-18T03:19:11.859Z,62.50
2019-05-18T03:19:43.033Z,62.50
2019-05-18T03:20:14.202Z,62.50
2019-05-18T03:20:45.373Z,62.50
2019-05-18T03:21:16.546Z,62.50
2019-05-18T03:21:47.718Z,62.50
2019-05-18T03:22:18.958Z,62.50
2019-05-18T03:22:50.181Z,62.50
2019-05-18T03:23:21.618Z,62.50
2019-05-18T03:23:52.790Z,62.50
2019-05-18T03:24:23.975Z,62.50
2019-05-18T03:24:55.158Z,62.50
2019-05-18T03:25:26.323Z,62.50
2019-05-18T03:25:57.486Z,62.50
2019-05-18T03:26:28.659Z,62.50
2019-05-18T03:26:59.843Z,62.50
2019-05-18T03:27:31.013Z,62.50
2019-05-18T03:28:02.473Z,62.50
2019-05-18T03:28:33.654Z,62.50
2019-05-18T03:29:04.817Z,62.50
2019-05-18T03:29:36.255Z,62.50
2019-05-18T03:30:07.432Z,62.50
2019-05-18T03:30:38.599Z,62.50
2019-05-18T03:31:09.850Z,62.50
2019-05-18T03:31:41.281Z,62.40
2019-05-18T03:32:12.451Z,62.50
2019-05-18T03:32:43.658Z,62.50
2019-05-18T03:33:14.830Z,62.50
2019-05-18T03:33:46.048Z,62.50
2019-05-18T03:34:17.531Z,62.50
2019-05-18T03:34:48.800Z,62.50
2019-05-18T03:35:20.021Z,62.50
2019-05-18T03:35:51.269Z,62.60
2019-05-18T03:36:22.438Z,62.60
2019-05-18T03:36:53.615Z,62.60
2019-05-18T03:37:24.859Z,62.60
2019-05-18T03:37:56.315Z,62.60
2019-05-18T03:38:27.494Z,62.60
2019-05-18T03:38:58.666Z,62.60
2019-05-18T03:39:29.846Z,62.60
2019-05-18T03:40:01.020Z,62.60
2019-05-18T03:40:32.223Z,62.60
2019-05-18T03:41:03.475Z,62.60
2019-05-18T03:41:34.677Z,62.60
2019-05-18T03:42:05.896Z,62.70
2019-05-18T03:42:37.108Z,62.60
2019-05-18T03:43:08.290Z,62.60
2019-05-18T03:43:39.707Z,62.60
2019-05-18T03:44:10.887Z,62.60
2019-05-18T03:44:42.051Z,62.60
2019-05-18T03:45:13.241Z,62.60
2019-05-18T03:45:44.423Z,62.60
2019-05-18T03:46:15.594Z,62.60
2019-05-18T03:46:47.020Z,62.50
2019-05-18T03:47:18.215Z,62.50
2019-05-18T03:47:49.393Z,62.50
2019-05-18T03:48:20.586Z,62.50
2019-05-18T03:48:51.765Z,62.50
2019-05-18T03:49:26.613Z,62.40
2019-05-18T03:49:55.857Z,62.50
2019-05-18T03:50:27.027Z,62.40
2019-05-18T03:50:58.204Z,62.50
2019-05-18T03:51:29.428Z,62.50
2019-05-18T03:52:00.657Z,62.40
2019-05-18T03:52:31.828Z,62.40
2019-05-18T03:53:03.001Z,62.40
2019-05-18T03:53:34.176Z,62.50
2019-05-18T03:54:05.371Z,62.50
2019-05-18T03:54:36.805Z,62.50
2019-05-18T03:55:07.977Z,62.50
2019-05-18T03:55:39.158Z,62.50
2019-05-18T03:56:10.335Z,62.50
2019-05-18T03:56:41.495Z,62.50
2019-05-18T03:57:12.708Z,62.50
2019-05-18T03:57:43.970Z,62.50
2019-05-18T03:58:15.138Z,62.50
2019-05-18T03:58:46.627Z,62.50
2019-05-18T03:59:17.810Z,62.50
2019-05-18T03:59:48.981Z,62.50
2019-05-18T04:00:20.160Z,62.50
2019-05-18T04:00:51.355Z,62.50
2019-05-18T04:01:22.547Z,62.50
2019-05-18T04:01:53.731Z,62.50
2019-05-18T04:02:24.899Z,62.50
2019-05-18T04:02:56.072Z,62.50
2019-05-18T04:03:27.251Z,62.50
2019-05-18T04:03:58.462Z,62.60
2019-05-18T04:04:29.642Z,62.50
2019-05-18T04:05:00.844Z,62.50
2019-05-18T04:05:32.114Z,62.60
2019-05-18T04:06:03.415Z,62.50
2019-05-18T04:06:34.956Z,62.50
2019-05-18T04:07:06.126Z,62.50
2019-05-18T04:07:37.676Z,62.50
2019-05-18T04:08:08.850Z,62.50
2019-05-18T04:08:40.093Z,62.50
2019-05-18T04:09:11.265Z,62.50
2019-05-18T04:09:42.451Z,62.60
2019-05-18T04:10:13.896Z,62.50
2019-05-18T04:10:45.357Z,62.50
2019-05-18T04:11:16.792Z,62.50
2019-05-18T04:11:47.969Z,62.50
2019-05-18T04:12:19.141Z,62.50
2019-05-18T04:12:50.585Z,62.40
2019-05-18T04:13:21.747Z,62.40
2019-05-18T04:13:52.924Z,62.50
2019-05-18T04:14:24.101Z,62.40
2019-05-18T04:14:55.264Z,62.40
2019-05-18T04:15:26.446Z,62.50
2019-05-18T04:15:57.649Z,62.60
2019-05-18T04:16:28.829Z,62.50
2019-05-18T04:17:00.026Z,62.50
2019-05-18T04:17:31.201Z,62.50
2019-05-18T04:18:02.378Z,62.60
2019-05-18T04:18:33.808Z,62.60
2019-05-18T04:19:05.257Z,62.60
2019-05-18T04:19:46.237Z,62.60
2019-05-18T04:20:09.404Z,62.60
2019-05-18T04:20:40.583Z,62.60
2019-05-18T04:21:11.779Z,62.60
2019-05-18T04:21:42.955Z,62.60
2019-05-18T04:22:14.126Z,62.60
2019-05-18T04:22:45.294Z,62.60
2019-05-18T04:23:16.480Z,62.60
2019-05-18T04:23:47.656Z,62.60
2019-05-18T04:24:18.860Z,62.50
2019-05-18T04:24:50.096Z,62.50
2019-05-18T04:25:21.279Z,62.50
2019-05-18T04:25:52.745Z,62.50
2019-05-18T04:26:24.013Z,62.60
2019-05-18T04:26:55.185Z,62.50
2019-05-18T04:27:26.637Z,62.50
2019-05-18T04:27:57.833Z,62.50
2019-05-18T04:28:29.078Z,62.50
2019-05-18T04:29:00.250Z,62.40
2019-05-18T04:29:31.453Z,62.40
2019-05-18T04:30:02.670Z,62.40
2019-05-18T04:30:33.840Z,62.30
2019-05-18T04:31:05.033Z,62.30
2019-05-18T04:31:36.200Z,62.30
2019-05-18T04:32:07.376Z,62.30
2019-05-18T04:32:38.845Z,62.30
2019-05-18T04:33:10.025Z,62.30
2019-05-18T04:33:41.196Z,62.40
2019-05-18T04:34:12.369Z,62.40
2019-05-18T04:34:43.546Z,62.40
2019-05-18T04:35:14.722Z,62.40
2019-05-18T04:35:45.897Z,62.40
2019-05-18T04:36:17.364Z,62.40
2019-05-18T04:36:48.791Z,62.40
2019-05-18T04:37:19.962Z,62.40
2019-05-18T04:37:51.163Z,62.40
2019-05-18T04:38:22.343Z,62.40
2019-05-18T04:38:53.525Z,62.40
2019-05-18T04:39:24.719Z,62.30
2019-05-18T04:39:55.909Z,62.40
2019-05-18T04:40:27.199Z,62.40
2019-05-18T04:40:58.375Z,62.40
2019-05-18T04:41:29.582Z,62.40
2019-05-18T04:42:01.071Z,62.50
2019-05-18T04:42:32.245Z,62.40
2019-05-18T04:43:03.440Z,62.40
2019-05-18T04:43:34.614Z,62.30
2019-05-18T04:44:05.791Z,62.40
2019-05-18T04:44:36.966Z,62.40
2019-05-18T04:45:08.136Z,62.40
2019-05-18T04:45:39.308Z,62.40
2019-05-18T04:46:10.521Z,62.30
2019-05-18T04:46:41.749Z,62.40
2019-05-18T04:47:12.923Z,62.50
2019-05-18T04:47:48.322Z,62.40
2019-05-18T04:48:17.033Z,62.40
2019-05-18T04:48:48.258Z,62.30
2019-05-18T04:49:19.428Z,62.40
2019-05-18T04:50:04.396Z,62.40
2019-05-18T04:50:23.766Z,62.30
2019-05-18T04:50:54.944Z,62.50
2019-05-18T04:51:26.498Z,62.50
2019-05-18T04:51:57.717Z,62.40
2019-05-18T04:52:28.976Z,62.50
2019-05-18T04:53:00.140Z,62.40
2019-05-18T04:53:31.335Z,62.40
2019-05-18T04:54:02.775Z,62.40
2019-05-18T04:54:34.017Z,62.40
2019-05-18T04:55:05.218Z,62.50
2019-05-18T04:55:36.689Z,62.50
2019-05-18T04:56:07.855Z,62.50
2019-05-18T04:56:42.699Z,62.40
2019-05-18T04:57:11.940Z,62.30
2019-05-18T04:57:43.178Z,62.50
2019-05-18T04:58:14.360Z,62.40
2019-05-18T04:58:45.560Z,62.50
2019-05-18T04:59:16.731Z,62.50
2019-05-18T04:59:47.931Z,62.50
2019-05-18T05:00:19.118Z,62.50
2019-05-18T05:00:50.286Z,62.40
2019-05-18T05:01:21.517Z,62.50
2019-05-18T05:01:52.764Z,62.50
2019-05-18T05:02:24.001Z,62.40
2019-05-18T05:02:55.179Z,62.50
2019-05-18T05:03:26.620Z,62.50
2019-05-18T05:03:57.792Z,62.50
2019-05-18T05:04:28.967Z,62.50
2019-05-18T05:05:00.168Z,62.50
2019-05-18T05:05:31.394Z,62.50
2019-05-18T05:06:02.573Z,62.50
2019-05-18T05:06:33.761Z,62.50
2019-05-18T05:07:04.944Z,62.50
2019-05-18T05:07:36.134Z,62.50
2019-05-18T05:08:07.288Z,62.50
2019-05-18T05:08:38.456Z,62.50
2019-05-18T05:09:09.625Z,62.50
2019-05-18T05:09:40.812Z,62.40
2019-05-18T05:10:12.245Z,62.50
2019-05-18T05:10:43.421Z,62.40
2019-05-18T05:11:14.592Z,62.30
2019-05-18T05:11:45.785Z,62.40
2019-05-18T05:12:17.232Z,62.30
2019-05-18T05:12:48.409Z,62.30
2019-05-18T05:13:19.693Z,62.30
2019-05-18T05:13:50.868Z,62.30
2019-05-18T05:14:22.060Z,62.30
2019-05-18T05:14:53.239Z,62.30
2019-05-18T05:15:24.414Z,62.30
2019-05-18T05:15:55.587Z,62.30
2019-05-18T05:16:26.769Z,62.40
2019-05-18T05:16:57.947Z,62.30
2019-05-18T05:17:29.383Z,62.40
2019-05-18T05:18:00.574Z,62.30
2019-05-18T05:18:31.742Z,62.40
2019-05-18T05:19:03.003Z,62.40
2019-05-18T05:19:34.174Z,62.30
2019-05-18T05:20:18.768Z,62.30
2019-05-18T05:20:38.310Z,62.40
2019-05-18T05:21:09.579Z,62.40
2019-05-18T05:21:40.801Z,62.40
2019-05-18T05:22:11.971Z,62.40
2019-05-18T05:22:43.147Z,62.40
2019-05-18T05:23:14.676Z,62.40
2019-05-18T05:23:45.839Z,62.40
2019-05-18T05:24:17.011Z,62.40
2019-05-18T05:24:48.451Z,62.40
2019-05-18T05:25:19.696Z,62.40
2019-05-18T05:25:50.917Z,62.40
2019-05-18T05:26:22.091Z,62.30
2019-05-18T05:26:53.294Z,62.50
2019-05-18T05:27:24.792Z,62.50
2019-05-18T05:27:55.965Z,62.50
2019-05-18T05:28:27.144Z,62.50
2019-05-18T05:28:58.576Z,62.40
2019-05-18T05:29:29.752Z,62.40
2019-05-18T05:30:01.184Z,62.40
2019-05-18T05:30:32.377Z,62.40
2019-05-18T05:31:03.545Z,62.40
2019-05-18T05:31:34.712Z,62.50
2019-05-18T05:32:05.916Z,62.50
2019-05-18T05:32:37.121Z,62.40
2019-05-18T05:33:08.349Z,62.50
2019-05-18T05:33:39.522Z,62.50
2019-05-18T05:34:10.705Z,62.50
2019-05-18T05:34:41.881Z,62.40
2019-05-18T05:35:13.125Z,62.50
2019-05-18T05:35:44.330Z,62.50
2019-05-18T05:36:15.508Z,62.50
2019-05-18T05:36:46.682Z,62.50
2019-05-18T05:37:17.863Z,62.50
2019-05-18T05:37:49.038Z,62.50
2019-05-18T05:38:20.216Z,62.50
2019-05-18T05:38:51.407Z,62.50
2019-05-18T05:39:22.829Z,62.50
2019-05-18T05:39:54.000Z,62.60
2019-05-18T05:40:25.181Z,62.60
2019-05-18T05:40:56.384Z,62.60
2019-05-18T05:41:27.611Z,62.60
2019-05-18T05:41:59.039Z,62.70
2019-05-18T05:42:30.215Z,62.70
2019-05-18T05:43:01.391Z,62.70
2019-05-18T05:43:32.568Z,62.90
2019-05-18T05:44:03.746Z,62.60
2019-05-18T05:44:34.918Z,62.60
2019-05-18T05:45:06.090Z,62.60
2019-05-18T05:45:37.291Z,62.60
2019-05-18T05:46:08.737Z,62.60
2019-05-18T05:46:40.228Z,62.60
2019-05-18T05:47:11.673Z,62.60
2019-05-18T05:47:42.848Z,62.60
2019-05-18T05:48:14.026Z,62.60
2019-05-18T05:48:45.249Z,62.60
2019-05-18T05:49:16.448Z,62.60
2019-05-18T05:49:47.881Z,62.50
2019-05-18T05:50:33.010Z,62.60
2019-05-18T05:50:51.973Z,62.60
2019-05-18T05:51:23.404Z,62.50
2019-05-18T05:51:54.609Z,62.50
2019-05-18T05:52:25.783Z,62.50
2019-05-18T05:52:56.969Z,62.50
2019-05-18T05:53:28.403Z,62.60
2019-05-18T05:53:59.574Z,62.50
2019-05-18T05:54:30.753Z,62.50
2019-05-18T05:55:01.940Z,62.50
2019-05-18T05:55:33.114Z,62.50
2019-05-18T05:56:04.319Z,62.50
2019-05-18T05:56:35.491Z,62.50
2019-05-18T05:57:06.958Z,62.50
2019-05-18T05:57:38.151Z,62.50
2019-05-18T05:58:09.338Z,62.50
2019-05-18T05:58:40.594Z,62.50
2019-05-18T05:59:11.839Z,62.50
2019-05-18T05:59:43.035Z,62.50
2019-05-18T06:00:14.463Z,62.50
2019-05-18T06:00:45.643Z,62.50
2019-05-18T06:01:17.074Z,62.50
2019-05-18T06:01:48.501Z,62.60
2019-05-18T06:02:19.679Z,62.60
2019-05-18T06:02:50.852Z,62.60
2019-05-18T06:03:22.044Z,62.50
2019-05-18T06:03:53.216Z,62.60
2019-05-18T06:04:24.388Z,62.60
2019-05-18T06:04:55.580Z,62.60
2019-05-18T06:05:26.746Z,62.60
2019-05-18T06:05:57.919Z,62.60
2019-05-18T06:06:29.100Z,62.60
2019-05-18T06:07:00.537Z,62.60
2019-05-18T06:07:31.969Z,62.60
2019-05-18T06:08:03.147Z,62.60
2019-05-18T06:08:34.348Z,62.60
2019-05-18T06:09:05.539Z,62.60
2019-05-18T06:09:36.711Z,62.60
2019-05-18T06:10:07.904Z,62.60
2019-05-18T06:10:39.094Z,62.60
2019-05-18T06:11:10.273Z,62.60
2019-05-18T06:11:41.714Z,62.60
2019-05-18T06:12:12.882Z,62.60
2019-05-18T06:12:44.081Z,62.60
2019-05-18T06:13:15.248Z,62.60
2019-05-18T06:13:46.445Z,62.60
2019-05-18T06:14:17.610Z,62.60
2019-05-18T06:14:48.792Z,62.60
2019-05-18T06:15:19.986Z,62.60
2019-05-18T06:15:51.162Z,62.60
2019-05-18T06:16:22.342Z,62.70
2019-05-18T06:16:53.507Z,62.70
2019-05-18T06:17:24.674Z,62.70
2019-05-18T06:17:55.853Z,62.70
2019-05-18T06:18:27.038Z,62.70
2019-05-18T06:18:58.483Z,62.70
2019-05-18T06:19:29.944Z,62.70
2019-05-18T06:20:01.114Z,62.70
2019-05-18T06:20:32.288Z,62.70
2019-05-18T06:21:03.463Z,62.70
2019-05-18T06:21:34.634Z,62.70
2019-05-18T06:22:05.834Z,62.90
2019-05-18T06:22:37.021Z,62.90
2019-05-18T06:23:08.261Z,62.90
2019-05-18T06:23:39.427Z,62.90
2019-05-18T06:24:10.599Z,62.90
2019-05-18T06:24:41.776Z,62.90
2019-05-18T06:25:13.078Z,62.90
2019-05-18T06:25:44.320Z,62.90
2019-05-18T06:26:15.488Z,62.90
2019-05-18T06:26:46.924Z,62.90
2019-05-18T06:27:18.101Z,62.90
2019-05-18T06:27:49.274Z,62.90
2019-05-18T06:28:20.448Z,62.90
2019-05-18T06:28:51.629Z,62.90
2019-05-18T06:29:23.135Z,62.80
2019-05-18T06:29:54.345Z,62.80
2019-05-18T06:30:25.555Z,62.90
2019-05-18T06:30:57.066Z,62.90
2019-05-18T06:31:28.313Z,62.90
2019-05-18T06:31:59.533Z,62.80
2019-05-18T06:32:30.729Z,62.70
2019-05-18T06:33:02.167Z,62.70
2019-05-18T06:33:33.344Z,62.80
2019-05-18T06:34:04.526Z,62.70
2019-05-18T06:34:35.954Z,62.80
2019-05-18T06:35:07.129Z,62.70
2019-05-18T06:35:38.560Z,62.80
2019-05-18T06:36:09.749Z,62.90
2019-05-18T06:36:40.911Z,62.80
2019-05-18T06:37:12.098Z,62.90
2019-05-18T06:37:43.279Z,62.90
2019-05-18T06:38:14.498Z,62.80
2019-05-18T06:38:45.963Z,62.90
2019-05-18T06:39:17.423Z,62.90
2019-05-18T06:39:48.602Z,62.90
2019-05-18T06:40:19.771Z,62.90
2019-05-18T06:40:51.205Z,62.90
2019-05-18T06:41:22.449Z,63.00
2019-05-18T06:41:53.949Z,62.90
2019-05-18T06:42:25.127Z,62.90
2019-05-18T06:42:56.317Z,62.90